createdAt,value
2018-05-27T00:01:26.563Z,4.83
2018-05-27T00:03:54.133Z,8.10
2018-05-27T00:06:21.775Z,6.83
2018-05-27T00:08:49.301Z,7.63
2018-05-27T00:11:17.616Z,4.53
2018-05-27T00:13:45.168Z,4.33
2018-05-27T00:16:12.692Z,5.80
2018-05-27T00:18:40.281Z,5.90
2018-05-27T00:21:07.834Z,10.33
2018-05-27T00:23:35.396Z,7.00
2018-05-27T00:26:02.913Z,5.40
2018-05-27T00:28:31.244Z,7.10
2018-05-27T00:30:58.800Z,7.23
2018-05-27T00:33:26.350Z,5.53
2018-05-27T00:35:53.908Z,5.90
2018-05-27T00:38:21.437Z,6.70
2018-05-27T00:40:49.718Z,4.70
2018-05-27T00:43:18.050Z,4.73
2018-05-27T00:45:45.571Z,6.90
2018-05-27T00:48:13.081Z,6.23
2018-05-27T00:50:40.795Z,7.30
2018-05-27T00:53:08.376Z,7.10
2018-05-27T00:55:35.914Z,5.23
2018-05-27T00:58:03.471Z,9.43
2018-05-27T01:00:30.994Z,5.30
2018-05-27T01:02:59.318Z,5.70
2018-05-27T01:05:27.205Z,6.30
2018-05-27T01:07:54.749Z,5.63
2018-05-27T01:10:22.289Z,5.70
2018-05-27T01:12:49.849Z,10.57
2018-05-27T01:15:17.401Z,7.60
2018-05-27T01:17:44.964Z,7.90
2018-05-27T01:20:12.534Z,5.47
2018-05-27T01:22:40.085Z,8.00
2018-05-27T01:25:07.642Z,6.93
2018-05-27T01:27:35.308Z,10.93
2018-05-27T01:30:02.840Z,9.27
2018-05-27T01:32:30.436Z,7.37
2018-05-27T01:34:58.005Z,5.83
2018-05-27T01:37:25.530Z,6.17
2018-05-27T01:39:53.111Z,9.43
2018-05-27T01:42:20.658Z,5.67
2018-05-27T01:44:49.243Z,7.30
2018-05-27T01:47:16.806Z,6.00
2018-05-27T01:49:44.480Z,11.23
2018-05-27T01:52:12.015Z,4.70
2018-05-27T01:54:39.582Z,5.77
2018-05-27T01:57:07.169Z,7.13
2018-05-27T01:59:34.704Z,5.97
2018-05-27T02:02:02.345Z,7.23
2018-05-27T02:04:29.913Z,5.97
2018-05-27T02:06:57.482Z,8.93
2018-05-27T02:09:25.070Z,6.10
2018-05-27T02:11:52.692Z,8.93
2018-05-27T02:14:20.254Z,7.13
2018-05-27T02:16:47.809Z,6.73
2018-05-27T02:19:15.371Z,8.40
2018-05-27T02:21:42.889Z,12.30
2018-05-27T02:24:11.206Z,8.83
2018-05-27T02:26:38.775Z,8.23
2018-05-27T02:29:06.295Z,6.60
2018-05-27T02:31:34.573Z,6.83
2018-05-27T02:34:02.979Z,8.07
2018-05-27T02:36:43.042Z,6.70
2018-05-27T02:39:10.612Z,9.60
2018-05-27T02:41:38.240Z,9.37
2018-05-27T02:44:05.814Z,7.67
2018-05-27T02:46:33.376Z,7.03
2018-05-27T02:49:00.915Z,6.53
2018-05-27T02:51:28.437Z,10.93
2018-05-27T02:53:56.861Z,9.33
2018-05-27T02:56:24.396Z,18.23
2018-05-27T02:58:52.709Z,6.63
2018-05-27T03:01:20.279Z,7.37
2018-05-27T03:03:47.826Z,7.00
2018-05-27T03:06:15.383Z,7.40
2018-05-27T03:08:42.948Z,8.40
2018-05-27T03:11:10.471Z,7.53
2018-05-27T03:13:37.995Z,8.43
2018-05-27T03:16:05.663Z,8.93
2018-05-27T03:18:33.175Z,10.33
2018-05-27T03:21:00.748Z,8.07
2018-05-27T03:23:28.303Z,8.80
2018-05-27T03:25:55.841Z,10.37
2018-05-27T03:28:23.360Z,15.53
2018-05-27T03:30:51.802Z,8.03
2018-05-27T03:33:19.343Z,12.27
2018-05-27T03:35:46.856Z,9.10
2018-05-27T03:38:15.174Z,9.93
2018-05-27T03:40:42.699Z,8.40
2018-05-27T03:43:10.977Z,8.80
2018-05-27T03:45:39.312Z,8.80
2018-05-27T03:48:06.964Z,8.70
2018-05-27T03:50:34.486Z,8.33
2018-05-27T03:53:02.032Z,11.93
2018-05-27T03:55:30.330Z,10.33
2018-05-27T03:57:57.859Z,10.20
2018-05-27T04:00:26.254Z,16.10
2018-05-27T04:02:53.844Z,8.87
2018-05-27T04:05:33.380Z,10.93
2018-05-27T04:08:12.921Z,8.73
2018-05-27T04:10:40.502Z,9.83
2018-05-27T04:13:08.356Z,15.43
2018-05-27T04:15:35.870Z,15.97
2018-05-27T04:18:04.215Z,10.00
2018-05-27T04:20:31.866Z,11.07
2018-05-27T04:22:59.381Z,14.50
2018-05-27T04:25:26.945Z,15.50
2018-05-27T04:27:54.481Z,11.23
2018-05-27T04:30:22.786Z,8.97
2018-05-27T04:32:50.358Z,12.50
2018-05-27T04:35:18.730Z,10.70
2018-05-27T04:37:46.241Z,9.50
2018-05-27T04:40:14.572Z,9.53
2018-05-27T04:42:42.116Z,13.23
2018-05-27T04:45:10.202Z,8.90
2018-05-27T04:47:37.761Z,15.90
2018-05-27T04:50:05.277Z,8.70
2018-05-27T04:52:33.627Z,12.90
2018-05-27T04:55:01.241Z,8.87
2018-05-27T04:57:28.749Z,10.03
2018-05-27T04:59:56.363Z,9.57
2018-05-27T05:02:23.907Z,12.60
2018-05-27T05:04:51.472Z,11.23
2018-05-27T05:07:18.993Z,9.87
2018-05-27T05:09:47.307Z,12.83
2018-05-27T05:12:14.871Z,12.43
2018-05-27T05:14:42.390Z,9.93
2018-05-27T05:17:10.728Z,10.03
2018-05-27T05:19:38.277Z,9.73
2018-05-27T05:22:05.878Z,10.00
2018-05-27T05:24:34.519Z,12.57
2018-05-27T05:27:02.078Z,11.93
2018-05-27T05:29:29.621Z,9.17
2018-05-27T05:31:57.179Z,12.60
2018-05-27T05:34:24.753Z,12.80
2018-05-27T05:36:52.277Z,10.03
2018-05-27T05:39:19.829Z,11.40
2018-05-27T05:41:48.149Z,10.00
2018-05-27T05:44:15.695Z,14.83
2018-05-27T05:46:43.255Z,9.97
2018-05-27T05:49:10.807Z,9.50
2018-05-27T05:51:38.319Z,8.93
2018-05-27T05:54:05.879Z,13.10
2018-05-27T05:56:33.397Z,8.30
2018-05-27T05:59:00.927Z,10.40
2018-05-27T06:01:29.117Z,12.63
2018-05-27T06:03:56.653Z,9.13
2018-05-27T06:06:24.157Z,9.70
2018-05-27T06:08:51.698Z,7.57
2018-05-27T06:11:19.275Z,10.10
2018-05-27T06:13:46.844Z,8.73
2018-05-27T06:16:14.467Z,10.37
2018-05-27T06:18:41.993Z,9.30
2018-05-27T06:21:10.311Z,10.60
2018-05-27T06:23:37.959Z,8.00
2018-05-27T06:26:05.478Z,10.63
2018-05-27T06:28:32.998Z,9.77
2018-05-27T06:31:00.639Z,8.57
2018-05-27T06:33:28.193Z,8.57
2018-05-27T06:35:55.824Z,10.50
2018-05-27T06:38:24.153Z,9.80
2018-05-27T06:40:51.691Z,10.60
2018-05-27T06:43:19.224Z,7.90
2018-05-27T06:45:47.528Z,8.60
2018-05-27T06:48:15.090Z,7.20
2018-05-27T06:50:42.663Z,9.30
2018-05-27T06:53:10.214Z,12.17
2018-05-27T06:55:37.776Z,9.43
2018-05-27T06:58:05.310Z,8.10
2018-05-27T07:00:32.851Z,8.50
2018-05-27T07:03:01.161Z,8.20
2018-05-27T07:05:28.717Z,7.13
2018-05-27T07:07:56.298Z,12.17
2018-05-27T07:10:23.951Z,9.77
2018-05-27T07:12:51.467Z,9.77
2018-05-27T07:15:19.792Z,7.40
2018-05-27T07:17:48.783Z,11.30
2018-05-27T07:20:16.323Z,7.93
2018-05-27T07:22:43.844Z,8.50
2018-05-27T07:25:12.172Z,8.53
2018-05-27T07:27:39.819Z,9.50
2018-05-27T07:30:07.382Z,7.20
2018-05-27T07:32:35.068Z,8.57
2018-05-27T07:35:02.618Z,7.47
2018-05-27T07:37:30.168Z,11.27
2018-05-27T07:39:57.732Z,11.80
2018-05-27T07:42:25.253Z,10.27
2018-05-27T07:44:52.844Z,9.00
2018-05-27T07:47:20.391Z,9.13
2018-05-27T07:49:47.945Z,8.47
2018-05-27T07:52:15.470Z,7.00
2018-05-27T07:54:43.987Z,7.23
2018-05-27T07:57:11.520Z,8.93
2018-05-27T07:59:39.076Z,9.30
2018-05-27T08:02:07.394Z,9.13
2018-05-27T08:04:34.925Z,12.67
2018-05-27T08:07:02.487Z,8.03
2018-05-27T08:09:30.113Z,8.33
2018-05-27T08:11:57.647Z,9.03
2018-05-27T08:14:25.188Z,8.00
2018-05-27T08:16:52.741Z,6.30
2018-05-27T08:19:20.254Z,12.83
2018-05-27T08:21:48.546Z,10.13
2018-05-27T08:24:16.964Z,7.83
2018-05-27T08:26:44.503Z,8.17
2018-05-27T08:29:12.037Z,9.60
2018-05-27T08:31:40.359Z,9.43
2018-05-27T08:34:07.905Z,8.57
2018-05-27T08:36:35.431Z,7.80
2018-05-27T08:39:03.756Z,7.97
2018-05-27T08:41:31.294Z,10.07
2018-05-27T08:43:58.841Z,11.30
2018-05-27T08:46:26.418Z,7.17
2018-05-27T08:48:54.322Z,7.93
2018-05-27T08:51:21.839Z,7.00
2018-05-27T08:53:49.390Z,7.23
2018-05-27T08:56:16.971Z,7.93
2018-05-27T08:58:44.508Z,8.20
2018-05-27T09:01:12.113Z,8.40
2018-05-27T09:03:39.689Z,7.53
2018-05-27T09:06:07.200Z,10.03
2018-05-27T09:08:34.740Z,7.83
2018-05-27T09:11:02.271Z,12.60
2018-05-27T09:13:30.561Z,7.13
2018-05-27T09:15:58.372Z,9.33
2018-05-27T09:18:26.015Z,8.87
2018-05-27T09:20:53.531Z,9.40
2018-05-27T09:23:21.859Z,7.70
2018-05-27T09:25:49.528Z,6.80
2018-05-27T09:28:17.045Z,6.50
2018-05-27T09:30:44.629Z,7.67
2018-05-27T09:33:12.203Z,7.10
2018-05-27T09:35:39.729Z,6.00
2018-05-27T09:38:07.302Z,8.07
2018-05-27T09:40:34.969Z,11.40
2018-05-27T09:43:02.615Z,8.93
2018-05-27T09:45:30.216Z,7.80
2018-05-27T09:47:57.737Z,7.27
2018-05-27T09:50:25.311Z,8.93
2018-05-27T09:52:52.850Z,6.87
2018-05-27T09:55:20.528Z,8.97
2018-05-27T09:57:48.087Z,6.63
2018-05-27T10:00:15.600Z,5.90
2018-05-27T10:02:44.005Z,9.30
2018-05-27T10:05:11.524Z,6.90
2018-05-27T10:07:39.809Z,6.60
2018-05-27T10:10:08.226Z,10.60
2018-05-27T10:12:35.786Z,7.90
2018-05-27T10:15:03.298Z,8.93
2018-05-27T10:17:31.721Z,8.43
2018-05-27T10:19:59.275Z,8.40
2018-05-27T10:22:26.797Z,9.90
2018-05-27T10:24:55.157Z,9.13
2018-05-27T10:27:23.104Z,7.17
2018-05-27T10:29:50.650Z,6.70
2018-05-27T10:32:18.211Z,6.77
2018-05-27T10:34:45.736Z,7.60
2018-05-27T10:37:13.267Z,5.77
2018-05-27T10:39:40.888Z,6.00
2018-05-27T10:42:08.410Z,8.87
2018-05-27T10:44:35.937Z,9.30
2018-05-27T10:47:04.997Z,5.47
2018-05-27T10:49:32.545Z,6.97
2018-05-27T10:52:00.114Z,7.50
2018-05-27T10:54:27.784Z,7.57
2018-05-27T10:56:55.312Z,6.07
2018-05-27T10:59:22.828Z,6.10
2018-05-27T11:01:51.894Z,9.40
2018-05-27T11:04:19.415Z,7.47
2018-05-27T11:06:46.963Z,9.43
2018-05-27T11:09:15.282Z,6.63
2018-05-27T11:11:42.836Z,11.13
2018-05-27T11:14:10.393Z,7.83
2018-05-27T11:16:37.947Z,6.23
2018-05-27T11:19:05.492Z,8.00
2018-05-27T11:21:33.049Z,7.37
2018-05-27T11:24:00.622Z,11.10
2018-05-27T11:26:28.152Z,8.87
2018-05-27T11:28:56.471Z,6.40
2018-05-27T11:31:24.965Z,12.93
2018-05-27T11:33:52.607Z,6.10
2018-05-27T11:36:20.123Z,10.57
2018-05-27T11:38:48.412Z,6.50
2018-05-27T11:41:15.987Z,5.63
2018-05-27T11:43:43.497Z,6.33
2018-05-27T11:46:11.070Z,8.33
2018-05-27T11:48:39.437Z,8.23
2018-05-27T11:51:06.938Z,5.97
2018-05-27T11:53:34.481Z,9.43
2018-05-27T11:56:02.285Z,6.17
2018-05-27T11:58:29.856Z,8.37
2018-05-27T12:00:57.377Z,5.57
2018-05-27T12:03:24.973Z,6.63
2018-05-27T12:05:52.608Z,6.63
2018-05-27T12:08:20.127Z,6.23
2018-05-27T12:10:48.543Z,5.70
2018-05-27T12:13:16.117Z,6.77
2018-05-27T12:15:43.664Z,5.30
2018-05-27T12:18:11.237Z,7.33
2018-05-27T12:20:38.774Z,19.07
2018-05-27T12:23:06.353Z,5.90
2018-05-27T12:25:33.992Z,6.73
2018-05-27T12:28:02.749Z,7.10
2018-05-27T12:30:31.173Z,5.93
2018-05-27T12:32:58.705Z,8.77
2018-05-27T12:35:27.170Z,6.93
2018-05-27T12:37:55.497Z,6.90
2018-05-27T12:40:23.130Z,5.70
2018-05-27T12:42:50.818Z,6.60
2018-05-27T12:45:19.192Z,5.80
2018-05-27T12:47:46.743Z,9.90
2018-05-27T12:50:14.266Z,7.47
2018-05-27T12:52:41.861Z,6.87
2018-05-27T12:55:09.409Z,6.73
2018-05-27T12:57:36.970Z,7.07
2018-05-27T13:00:04.511Z,6.20
2018-05-27T13:02:32.045Z,6.63
2018-05-27T13:05:00.370Z,10.07
2018-05-27T13:07:27.899Z,6.00
2018-05-27T13:09:55.488Z,6.60
2018-05-27T13:12:23.017Z,7.30
2018-05-27T13:14:50.557Z,7.63
2018-05-27T13:17:18.861Z,6.37
2018-05-27T13:19:46.432Z,7.20
2018-05-27T13:22:13.944Z,9.43
2018-05-27T13:24:41.551Z,6.77
2018-05-27T13:27:09.085Z,7.67
2018-05-27T13:29:36.639Z,8.37
2018-05-27T13:32:04.956Z,6.37
2018-05-27T13:34:32.516Z,6.53
2018-05-27T13:37:00.457Z,6.80
2018-05-27T13:39:27.982Z,5.77
2018-05-27T13:41:56.335Z,7.50
2018-05-27T13:44:23.979Z,13.93
2018-05-27T13:46:51.508Z,7.43
2018-05-27T13:49:19.077Z,6.40
2018-05-27T13:51:46.582Z,6.67
2018-05-27T13:54:14.173Z,6.57
2018-05-27T13:56:41.773Z,7.90
2018-05-27T13:59:09.964Z,7.90
2018-05-27T14:01:37.586Z,6.60
2018-05-27T14:04:05.196Z,5.83
2018-05-27T14:06:32.738Z,7.00
2018-05-27T14:09:00.286Z,9.00
2018-05-27T14:11:30.522Z,8.00
2018-05-27T14:13:58.363Z,6.80
2018-05-27T14:16:25.892Z,7.33
2018-05-27T14:18:53.478Z,8.60
2018-05-27T14:21:21.176Z,23.50
2018-05-27T14:23:48.708Z,7.50
2018-05-27T14:26:16.267Z,6.33
2018-05-27T14:28:43.824Z,8.93
2018-05-27T14:31:11.371Z,10.63
2018-05-27T14:33:38.934Z,7.57
2018-05-27T14:36:06.493Z,6.83
2018-05-27T14:38:34.059Z,7.70
2018-05-27T14:41:01.608Z,6.70
2018-05-27T14:43:29.280Z,6.57
2018-05-27T14:45:56.825Z,7.23
2018-05-27T14:48:24.359Z,9.70
2018-05-27T14:50:52.046Z,6.90
2018-05-27T14:53:19.609Z,7.20
2018-05-27T14:55:47.488Z,10.13
2018-05-27T14:58:15.035Z,6.47
2018-05-27T15:00:42.594Z,8.30
2018-05-27T15:03:10.122Z,7.40
2018-05-27T15:05:37.733Z,6.90
2018-05-27T15:08:05.391Z,8.90
2018-05-27T15:10:32.925Z,7.60
2018-05-27T15:13:00.437Z,9.73
2018-05-27T15:15:28.055Z,10.50
2018-05-27T15:17:55.578Z,7.03
2018-05-27T15:20:23.990Z,10.60
2018-05-27T15:22:51.522Z,6.37
2018-05-27T15:25:19.122Z,7.07
2018-05-27T15:27:46.770Z,7.67
2018-05-27T15:30:19.233Z,10.30
2018-05-27T15:32:46.798Z,7.33
2018-05-27T15:35:14.324Z,6.90
2018-05-27T15:37:42.040Z,7.60
2018-05-27T15:40:09.678Z,8.33
2018-05-27T15:42:37.216Z,12.33
2018-05-27T15:45:04.795Z,8.63
2018-05-27T15:47:32.309Z,9.10
2018-05-27T15:50:00.597Z,7.77
2018-05-27T15:52:28.917Z,10.27
2018-05-27T15:54:56.434Z,8.27
2018-05-27T15:57:24.771Z,8.80
2018-05-27T15:59:52.395Z,8.40
2018-05-27T16:02:19.962Z,8.37
2018-05-27T16:04:47.637Z,9.00
2018-05-27T16:07:15.194Z,8.40
2018-05-27T16:09:42.760Z,9.13
2018-05-27T16:12:10.312Z,8.23
2018-05-27T16:14:37.858Z,6.77
2018-05-27T16:17:05.418Z,6.87
2018-05-27T16:19:32.940Z,6.30
2018-05-27T16:22:01.343Z,5.63
2018-05-27T16:24:28.852Z,6.63
2018-05-27T16:26:56.402Z,11.00
2018-05-27T16:29:23.937Z,6.27
2018-05-27T16:31:51.897Z,6.13
2018-05-27T16:34:19.468Z,6.70
2018-05-27T16:36:47.014Z,10.47
2018-05-27T16:39:14.563Z,7.30
2018-05-27T16:41:42.129Z,14.40
2018-05-27T16:44:10.196Z,5.70
2018-05-27T16:46:37.796Z,8.50
2018-05-27T16:49:05.295Z,9.27
2018-05-27T16:51:32.813Z,9.20
2018-05-27T16:54:00.434Z,7.17
2018-05-27T16:56:27.999Z,6.00
2018-05-27T16:58:55.555Z,7.00
2018-05-27T17:01:23.069Z,5.90
2018-05-27T17:03:51.403Z,5.37
2018-05-27T17:06:19.379Z,6.50
2018-05-27T17:08:46.930Z,5.30
2018-05-27T17:11:14.585Z,5.17
2018-05-27T17:13:42.143Z,5.53
2018-05-27T17:16:09.654Z,9.87
2018-05-27T17:18:37.958Z,4.97
2018-05-27T17:21:05.547Z,5.50
2018-05-27T17:23:33.106Z,5.30
2018-05-27T17:26:00.640Z,5.80
2018-05-27T17:28:28.213Z,5.10
2018-05-27T17:30:55.759Z,5.90
2018-05-27T17:33:23.288Z,5.00
2018-05-27T17:35:51.704Z,7.40
2018-05-27T17:38:19.241Z,6.83
2018-05-27T17:40:46.817Z,5.70
2018-05-27T17:43:14.348Z,4.30
2018-05-27T17:45:42.653Z,6.30
2018-05-27T17:48:10.213Z,7.67
2018-05-27T17:50:37.747Z,5.20
2018-05-27T17:53:05.339Z,4.97
2018-05-27T17:55:32.891Z,9.80
2018-05-27T17:58:01.345Z,6.40
2018-05-27T18:00:28.911Z,6.00
2018-05-27T18:02:56.434Z,6.03
2018-05-27T18:05:23.964Z,5.00
2018-05-27T18:07:51.512Z,7.03
2018-05-27T18:10:19.034Z,6.93
2018-05-27T18:12:47.391Z,8.73
2018-05-27T18:15:15.718Z,7.97
2018-05-27T18:17:43.604Z,10.80
2018-05-27T18:20:11.149Z,8.87
2018-05-27T18:22:38.679Z,8.40
2018-05-27T18:25:06.262Z,8.70
2018-05-27T18:27:33.845Z,19.50
2018-05-27T18:30:02.205Z,13.33
2018-05-27T18:32:30.130Z,9.13
2018-05-27T18:34:58.449Z,10.60
2018-05-27T18:37:26.675Z,9.83
2018-05-27T18:39:54.997Z,7.53
2018-05-27T18:42:22.566Z,10.87
2018-05-27T18:44:50.205Z,7.57
2018-05-27T18:47:17.758Z,8.37
2018-05-27T18:49:45.321Z,8.00
2018-05-27T18:52:12.854Z,11.90
2018-05-27T18:54:41.165Z,9.20
2018-05-27T18:57:08.735Z,9.03
2018-05-27T18:59:36.549Z,10.17
2018-05-27T19:02:04.881Z,9.57
2018-05-27T19:04:32.419Z,8.50
2018-05-27T19:06:59.990Z,7.67
2018-05-27T19:09:27.565Z,7.80
2018-05-27T19:11:55.119Z,9.40
2018-05-27T19:14:23.303Z,7.17
2018-05-27T19:16:51.669Z,8.53
2018-05-27T19:19:19.200Z,7.90
2018-05-27T19:21:46.760Z,8.37
2018-05-27T19:24:14.347Z,11.30
2018-05-27T19:26:41.908Z,8.47
2018-05-27T19:29:09.445Z,7.80
2018-05-27T19:31:37.008Z,8.50
2018-05-27T19:34:04.663Z,8.60
2018-05-27T19:36:32.234Z,8.60
2018-05-27T19:38:59.818Z,8.37
2018-05-27T19:41:27.474Z,8.43
2018-05-27T19:43:55.109Z,8.57
2018-05-27T19:46:23.660Z,9.43
2018-05-27T19:48:51.192Z,9.63
2018-05-27T19:51:18.746Z,8.77
2018-05-27T19:53:46.371Z,8.47
2018-05-27T19:56:13.938Z,9.20
2018-05-27T19:58:41.474Z,14.00
2018-05-27T20:01:09.121Z,11.13
2018-05-27T20:03:36.667Z,9.80
2018-05-27T20:06:04.990Z,13.30
2018-05-27T20:08:32.560Z,9.63
2018-05-27T20:11:00.102Z,9.83
2018-05-27T20:13:27.753Z,9.57
2018-05-27T20:15:55.274Z,9.27
2018-05-27T20:18:23.610Z,9.17
2018-05-27T20:20:51.146Z,8.43
2018-05-27T20:23:18.670Z,13.37
2018-05-27T20:25:46.960Z,11.60
2018-05-27T20:28:14.474Z,8.53
2018-05-27T20:30:42.057Z,9.00
2018-05-27T20:33:09.537Z,8.57
2018-05-27T20:35:37.049Z,8.70
2018-05-27T20:38:04.573Z,7.80
2018-05-27T20:40:32.100Z,7.90
2018-05-27T20:43:00.420Z,9.83
2018-05-27T20:45:27.942Z,6.70
2018-05-27T20:47:55.475Z,6.00
2018-05-27T20:50:24.105Z,7.20
2018-05-27T20:52:51.637Z,6.30
2018-05-27T20:55:19.184Z,7.10
2018-05-27T20:57:47.475Z,6.63
2018-05-27T21:00:15.003Z,7.43
2018-05-27T21:02:42.530Z,7.30
2018-05-27T21:05:10.045Z,7.57
2018-05-27T21:07:38.354Z,7.90
2018-05-27T21:10:05.873Z,8.40
2018-05-27T21:12:35.100Z,8.90
2018-05-27T21:15:02.646Z,8.00
2018-05-27T21:17:30.233Z,12.40
2018-05-27T21:19:57.797Z,10.67
2018-05-27T21:22:25.354Z,10.90
2018-05-27T21:24:52.991Z,9.03
2018-05-27T21:27:20.582Z,9.10
2018-05-27T21:29:48.118Z,9.77
2018-05-27T21:32:16.035Z,13.10
2018-05-27T21:34:44.334Z,11.10
2018-05-27T21:37:11.930Z,11.33
2018-05-27T21:39:39.459Z,11.90
2018-05-27T21:42:07.033Z,10.80
2018-05-27T21:44:34.599Z,15.63
2018-05-27T21:47:02.587Z,11.20
2018-05-27T21:49:30.104Z,11.73
2018-05-27T21:51:57.641Z,13.53
2018-05-27T21:54:25.955Z,12.50
2018-05-27T21:56:53.523Z,13.93
2018-05-27T21:59:21.041Z,13.87
2018-05-27T22:01:49.322Z,14.00
2018-05-27T22:04:17.639Z,19.03
2018-05-27T22:06:45.172Z,15.27
2018-05-27T22:09:12.729Z,16.63
2018-05-27T22:11:40.263Z,13.93
2018-05-27T22:14:08.576Z,12.83
2018-05-27T22:16:36.131Z,12.00
2018-05-27T22:19:03.664Z,14.10
2018-05-27T22:21:31.218Z,12.73
2018-05-27T22:23:59.506Z,12.23
2018-05-27T22:26:27.029Z,12.70
2018-05-27T22:28:54.559Z,13.13
2018-05-27T22:31:22.079Z,14.60
2018-05-27T22:33:49.624Z,13.43
2018-05-27T22:36:17.914Z,12.87
2018-05-27T22:38:45.510Z,12.23
2018-05-27T22:41:13.063Z,16.13
2018-05-27T22:43:40.594Z,13.30
2018-05-27T22:46:08.152Z,14.27
2018-05-27T22:48:37.709Z,14.03
2018-05-27T22:51:05.340Z,17.43
2018-05-27T22:53:32.930Z,15.80
2018-05-27T22:56:00.429Z,17.90
2018-05-27T22:58:28.756Z,16.03
2018-05-27T23:00:56.301Z,14.67
2018-05-27T23:03:23.888Z,15.00
2018-05-27T23:05:51.536Z,16.60
2018-05-27T23:08:19.069Z,16.50
2018-05-27T23:10:46.623Z,15.77
2018-05-27T23:13:14.152Z,15.97
2018-05-27T23:15:42.481Z,16.27
2018-05-27T23:18:10.015Z,17.30
2018-05-27T23:20:37.540Z,16.10
2018-05-27T23:23:05.880Z,16.90
2018-05-27T23:25:33.418Z,16.53
2018-05-27T23:28:00.959Z,15.60
2018-05-27T23:30:28.511Z,17.27
2018-05-27T23:32:56.041Z,16.50
2018-05-27T23:35:24.352Z,15.70
2018-05-27T23:37:51.898Z,16.50
2018-05-27T23:40:19.433Z,15.50
2018-05-27T23:42:47.743Z,15.90
2018-05-27T23:45:15.276Z,15.17
2018-05-27T23:47:43.589Z,16.47
2018-05-27T23:50:11.271Z,19.60
2018-05-27T23:52:38.806Z,17.47
2018-05-27T23:55:06.370Z,21.87
2018-05-27T23:57:33.905Z,17.53
